sensor_id;sensor_type;location;lat;lon;timestamp;temperature;humidity
23717;DHT22;22094;52.130;5.598;2023-04-07T00:01:37;8.80;99.90
23717;DHT22;22094;52.130;5.598;2023-04-07T00:04:02;8.80;99.90
23717;DHT22;22094;52.130;5.598;2023-04-07T00:06:28;8.80;99.90
23717;DHT22;22094;52.130;5.598;2023-04-07T00:08:53;8.80;99.90
23717;DHT22;22094;52.130;5.598;2023-04-07T00:11:19;8.80;99.90
23717;DHT22;22094;52.130;5.598;2023-04-07T00:13:45;8.70;99.90
23717;DHT22;22094;52.130;5.598;2023-04-07T00:16:10;9.30;99.90
23717;DHT22;22094;52.130;5.598;2023-04-07T00:18:36;8.70;99.90
23717;DHT22;22094;52.130;5.598;2023-04-07T00:21:01;8.70;99.90
23717;DHT22;22094;52.130;5.598;2023-04-07T00:23:27;8.70;99.90
23717;DHT22;22094;52.130;5.598;2023-04-07T00:25:52;8.70;99.90
23717;DHT22;22094;52.130;5.598;2023-04-07T00:28:18;8.60;99.90
23717;DHT22;22094;52.130;5.598;2023-04-07T00:30:43;8.70;99.90
23717;DHT22;22094;52.130;5.598;2023-04-07T00:33:09;8.60;99.90
23717;DHT22;22094;52.130;5.598;2023-04-07T00:35:35;8.60;99.90
23717;DHT22;22094;52.130;5.598;2023-04-07T00:38:00;8.60;99.90
23717;DHT22;22094;52.130;5.598;2023-04-07T00:40:27;8.60;99.90
23717;DHT22;22094;52.130;5.598;2023-04-07T00:42:52;8.50;99.90
23717;DHT22;22094;52.130;5.598;2023-04-07T00:45:18;8.60;99.90
23717;DHT22;22094;52.130;5.598;2023-04-07T00:47:43;8.60;99.90
23717;DHT22;22094;52.130;5.598;2023-04-07T00:50:09;8.50;99.90
23717;DHT22;22094;52.130;5.598;2023-04-07T00:52:35;8.60;99.90
23717;DHT22;22094;52.130;5.598;2023-04-07T00:55:01;8.50;99.90
23717;DHT22;22094;52.130;5.598;2023-04-07T00:57:26;8.50;99.90
23717;DHT22;22094;52.130;5.598;2023-04-07T00:59:52;8.50;99.90
23717;DHT22;22094;52.130;5.598;2023-04-07T01:02:25;8.50;99.90
23717;DHT22;22094;52.130;5.598;2023-04-07T01:05:17;8.40;99.90
23717;DHT22;22094;52.130;5.598;2023-04-07T01:08:00;8.50;99.90
23717;DHT22;22094;52.130;5.598;2023-04-07T01:10:43;8.50;99.90
23717;DHT22;22094;52.130;5.598;2023-04-07T01:13:27;8.60;99.90
23717;DHT22;22094;52.130;5.598;2023-04-07T01:15:57;8.50;99.90
23717;DHT22;22094;52.130;5.598;2023-04-07T01:18:35;8.40;99.90
23717;DHT22;22094;52.130;5.598;2023-04-07T01:21:06;8.50;99.90
23717;DHT22;22094;52.130;5.598;2023-04-07T01:26:18;8.50;99.90
23717;DHT22;22094;52.130;5.598;2023-04-07T01:31:38;8.50;99.90
23717;DHT22;22094;52.130;5.598;2023-04-07T01:34:07;8.50;99.90
23717;DHT22;22094;52.130;5.598;2023-04-07T01:36:33;8.40;99.90
23717;DHT22;22094;52.130;5.598;2023-04-07T01:39:00;8.40;99.90
23717;DHT22;22094;52.130;5.598;2023-04-07T01:41:26;8.40;99.90
23717;DHT22;22094;52.130;5.598;2023-04-07T01:43:53;8.40;99.90
23717;DHT22;22094;52.130;5.598;2023-04-07T01:46:19;8.40;99.90
23717;DHT22;22094;52.130;5.598;2023-04-07T01:48:46;8.40;99.90
23717;DHT22;22094;52.130;5.598;2023-04-07T01:51:13;8.50;99.90
23717;DHT22;22094;52.130;5.598;2023-04-07T01:53:45;8.40;99.90
23717;DHT22;22094;52.130;5.598;2023-04-07T01:56:11;8.40;99.90
23717;DHT22;22094;52.130;5.598;2023-04-07T01:58:37;8.40;99.90
23717;DHT22;22094;52.130;5.598;2023-04-07T02:01:03;8.30;99.90
23717;DHT22;22094;52.130;5.598;2023-04-07T02:03:42;8.40;99.90
23717;DHT22;22094;52.130;5.598;2023-04-07T02:06:11;8.30;99.90
23717;DHT22;22094;52.130;5.598;2023-04-07T02:08:41;8.40;99.90
23717;DHT22;22094;52.130;5.598;2023-04-07T02:11:10;8.40;99.90
23717;DHT22;22094;52.130;5.598;2023-04-07T02:13:37;8.40;99.90
23717;DHT22;22094;52.130;5.598;2023-04-07T02:16:05;8.40;99.90
23717;DHT22;22094;52.130;5.598;2023-04-07T02:18:31;8.40;99.90
23717;DHT22;22094;52.130;5.598;2023-04-07T02:20:59;8.40;99.90
23717;DHT22;22094;52.130;5.598;2023-04-07T02:23:27;8.30;99.90
23717;DHT22;22094;52.130;5.598;2023-04-07T02:25:55;8.30;99.90
23717;DHT22;22094;52.130;5.598;2023-04-07T02:28:21;8.30;99.90
23717;DHT22;22094;52.130;5.598;2023-04-07T02:30:46;8.30;99.90
23717;DHT22;22094;52.130;5.598;2023-04-07T02:33:12;8.40;99.90
23717;DHT22;22094;52.130;5.598;2023-04-07T02:35:37;8.40;99.90
23717;DHT22;22094;52.130;5.598;2023-04-07T02:38:03;8.30;99.90
23717;DHT22;22094;52.130;5.598;2023-04-07T02:40:29;8.30;99.90
23717;DHT22;22094;52.130;5.598;2023-04-07T02:42:54;8.30;99.90
23717;DHT22;22094;52.130;5.598;2023-04-07T02:45:20;8.30;99.90
23717;DHT22;22094;52.130;5.598;2023-04-07T02:47:45;8.30;99.90
23717;DHT22;22094;52.130;5.598;2023-04-07T02:50:11;8.30;99.90
23717;DHT22;22094;52.130;5.598;2023-04-07T02:52:36;8.30;99.90
23717;DHT22;22094;52.130;5.598;2023-04-07T02:55:02;8.30;99.90
23717;DHT22;22094;52.130;5.598;2023-04-07T02:57:28;8.30;99.90
23717;DHT22;22094;52.130;5.598;2023-04-07T02:59:54;8.30;99.90
23717;DHT22;22094;52.130;5.598;2023-04-07T03:02:21;8.30;99.90
23717;DHT22;22094;52.130;5.598;2023-04-07T03:04:46;8.30;99.90
23717;DHT22;22094;52.130;5.598;2023-04-07T03:07:12;8.40;99.90
23717;DHT22;22094;52.130;5.598;2023-04-07T03:09:37;8.40;99.90
23717;DHT22;22094;52.130;5.598;2023-04-07T03:12:03;8.40;99.90
23717;DHT22;22094;52.130;5.598;2023-04-07T03:14:28;8.30;99.90
23717;DHT22;22094;52.130;5.598;2023-04-07T03:16:54;8.30;99.90
23717;DHT22;22094;52.130;5.598;2023-04-07T03:19:20;8.30;99.90
23717;DHT22;22094;52.130;5.598;2023-04-07T03:21:46;8.40;99.90
23717;DHT22;22094;52.130;5.598;2023-04-07T03:24:11;8.40;99.90
23717;DHT22;22094;52.130;5.598;2023-04-07T03:26:37;8.30;99.90
23717;DHT22;22094;52.130;5.598;2023-04-07T03:29:02;8.30;99.90
23717;DHT22;22094;52.130;5.598;2023-04-07T03:31:28;8.30;99.90
23717;DHT22;22094;52.130;5.598;2023-04-07T03:33:54;8.30;99.90
23717;DHT22;22094;52.130;5.598;2023-04-07T03:36:20;8.30;99.90
23717;DHT22;22094;52.130;5.598;2023-04-07T03:38:46;8.30;99.90
23717;DHT22;22094;52.130;5.598;2023-04-07T03:41:12;8.30;99.90
23717;DHT22;22094;52.130;5.598;2023-04-07T03:43:38;8.30;99.90
23717;DHT22;22094;52.130;5.598;2023-04-07T03:46:04;8.30;99.90
23717;DHT22;22094;52.130;5.598;2023-04-07T03:48:30;8.30;99.90
23717;DHT22;22094;52.130;5.598;2023-04-07T03:50:55;8.30;99.90
23717;DHT22;22094;52.130;5.598;2023-04-07T03:53:21;8.30;99.90
23717;DHT22;22094;52.130;5.598;2023-04-07T03:55:47;8.40;99.90
23717;DHT22;22094;52.130;5.598;2023-04-07T03:58:13;8.40;99.90
23717;DHT22;22094;52.130;5.598;2023-04-07T04:00:38;8.40;99.90
23717;DHT22;22094;52.130;5.598;2023-04-07T04:03:05;8.40;99.90
23717;DHT22;22094;52.130;5.598;2023-04-07T04:05:30;8.40;99.90
23717;DHT22;22094;52.130;5.598;2023-04-07T04:07:56;8.50;99.90
23717;DHT22;22094;52.130;5.598;2023-04-07T04:10:21;8.40;99.90
23717;DHT22;22094;52.130;5.598;2023-04-07T04:12:48;8.40;99.90
23717;DHT22;22094;52.130;5.598;2023-04-07T04:15:14;8.30;99.90
23717;DHT22;22094;52.130;5.598;2023-04-07T04:17:40;8.30;99.90
23717;DHT22;22094;52.130;5.598;2023-04-07T04:20:07;8.30;99.90
23717;DHT22;22094;52.130;5.598;2023-04-07T04:22:33;8.30;99.90
23717;DHT22;22094;52.130;5.598;2023-04-07T04:24:59;8.30;99.90
23717;DHT22;22094;52.130;5.598;2023-04-07T04:27:24;8.30;99.90
23717;DHT22;22094;52.130;5.598;2023-04-07T04:29:50;8.30;99.90
23717;DHT22;22094;52.130;5.598;2023-04-07T04:32:16;8.30;99.90
23717;DHT22;22094;52.130;5.598;2023-04-07T04:34:42;8.60;99.90
23717;DHT22;22094;52.130;5.598;2023-04-07T04:37:08;8.30;99.90
23717;DHT22;22094;52.130;5.598;2023-04-07T04:39:33;8.30;99.90
23717;DHT22;22094;52.130;5.598;2023-04-07T04:41:59;8.30;99.90
23717;DHT22;22094;52.130;5.598;2023-04-07T04:44:25;8.60;99.90
23717;DHT22;22094;52.130;5.598;2023-04-07T04:46:51;8.30;99.90
23717;DHT22;22094;52.130;5.598;2023-04-07T04:49:17;8.30;99.90
23717;DHT22;22094;52.130;5.598;2023-04-07T04:52:01;8.20;99.90
23717;DHT22;22094;52.130;5.598;2023-04-07T04:54:27;8.30;99.90
23717;DHT22;22094;52.130;5.598;2023-04-07T04:56:52;8.30;99.90
23717;DHT22;22094;52.130;5.598;2023-04-07T04:59:18;8.30;99.90
23717;DHT22;22094;52.130;5.598;2023-04-07T05:01:43;8.30;99.90
23717;DHT22;22094;52.130;5.598;2023-04-07T05:04:09;8.30;99.90
23717;DHT22;22094;52.130;5.598;2023-04-07T05:06:37;8.30;99.90
23717;DHT22;22094;52.130;5.598;2023-04-07T05:09:02;8.30;99.90
23717;DHT22;22094;52.130;5.598;2023-04-07T05:11:28;8.20;99.90
23717;DHT22;22094;52.130;5.598;2023-04-07T05:13:54;8.30;99.90
23717;DHT22;22094;52.130;5.598;2023-04-07T05:16:19;8.50;99.90
23717;DHT22;22094;52.130;5.598;2023-04-07T05:18:45;8.30;99.90
23717;DHT22;22094;52.130;5.598;2023-04-07T05:21:10;8.30;99.90
23717;DHT22;22094;52.130;5.598;2023-04-07T05:23:36;8.30;99.90
23717;DHT22;22094;52.130;5.598;2023-04-07T05:26:01;8.40;99.90
23717;DHT22;22094;52.130;5.598;2023-04-07T05:28:27;8.30;99.90
23717;DHT22;22094;52.130;5.598;2023-04-07T05:30:52;8.40;99.90
23717;DHT22;22094;52.130;5.598;2023-04-07T05:33:18;8.30;99.90
23717;DHT22;22094;52.130;5.598;2023-04-07T05:35:44;8.30;99.90
23717;DHT22;22094;52.130;5.598;2023-04-07T05:38:10;8.30;99.90
23717;DHT22;22094;52.130;5.598;2023-04-07T05:40:36;8.30;99.90
23717;DHT22;22094;52.130;5.598;2023-04-07T05:43:02;8.20;99.90
23717;DHT22;22094;52.130;5.598;2023-04-07T05:45:27;8.20;99.90
23717;DHT22;22094;52.130;5.598;2023-04-07T05:47:53;8.30;99.90
23717;DHT22;22094;52.130;5.598;2023-04-07T05:50:18;8.30;99.90
23717;DHT22;22094;52.130;5.598;2023-04-07T05:52:44;8.20;99.90
23717;DHT22;22094;52.130;5.598;2023-04-07T05:55:10;8.30;99.90
23717;DHT22;22094;52.130;5.598;2023-04-07T05:57:36;8.30;99.90
23717;DHT22;22094;52.130;5.598;2023-04-07T06:00:01;8.30;99.90
23717;DHT22;22094;52.130;5.598;2023-04-07T06:02:28;8.30;99.90
23717;DHT22;22094;52.130;5.598;2023-04-07T06:04:53;8.30;99.90
23717;DHT22;22094;52.130;5.598;2023-04-07T06:07:19;8.30;99.90
23717;DHT22;22094;52.130;5.598;2023-04-07T06:09:44;8.40;99.90
23717;DHT22;22094;52.130;5.598;2023-04-07T06:12:10;8.40;99.90
23717;DHT22;22094;52.130;5.598;2023-04-07T06:14:37;8.30;99.90
23717;DHT22;22094;52.130;5.598;2023-04-07T06:17:02;8.40;99.90
23717;DHT22;22094;52.130;5.598;2023-04-07T06:19:28;8.40;99.90
23717;DHT22;22094;52.130;5.598;2023-04-07T06:21:53;8.40;99.90
23717;DHT22;22094;52.130;5.598;2023-04-07T06:24:19;8.40;99.90
23717;DHT22;22094;52.130;5.598;2023-04-07T06:26:47;8.30;99.90
23717;DHT22;22094;52.130;5.598;2023-04-07T06:29:12;8.50;99.90
23717;DHT22;22094;52.130;5.598;2023-04-07T06:31:38;8.50;99.90
23717;DHT22;22094;52.130;5.598;2023-04-07T06:34:03;8.30;99.90
23717;DHT22;22094;52.130;5.598;2023-04-07T06:36:29;8.50;99.90
23717;DHT22;22094;52.130;5.598;2023-04-07T06:38:55;8.50;99.90
23717;DHT22;22094;52.130;5.598;2023-04-07T06:41:20;8.50;99.90
23717;DHT22;22094;52.130;5.598;2023-04-07T06:43:47;8.70;99.90
23717;DHT22;22094;52.130;5.598;2023-04-07T06:46:13;8.40;99.90
23717;DHT22;22094;52.130;5.598;2023-04-07T06:48:38;8.70;99.90
23717;DHT22;22094;52.130;5.598;2023-04-07T06:51:04;8.50;99.90
23717;DHT22;22094;52.130;5.598;2023-04-07T06:53:30;9.20;99.90
23717;DHT22;22094;52.130;5.598;2023-04-07T06:56:06;8.50;99.90
23717;DHT22;22094;52.130;5.598;2023-04-07T06:58:32;8.50;99.90
23717;DHT22;22094;52.130;5.598;2023-04-07T07:00:58;8.40;99.90
23717;DHT22;22094;52.130;5.598;2023-04-07T07:05:54;8.70;99.90
23717;DHT22;22094;52.130;5.598;2023-04-07T07:08:24;8.80;99.90
23717;DHT22;22094;52.130;5.598;2023-04-07T07:10:50;8.90;99.90
23717;DHT22;22094;52.130;5.598;2023-04-07T07:13:21;8.90;99.90
23717;DHT22;22094;52.130;5.598;2023-04-07T07:15:51;9.00;99.90
23717;DHT22;22094;52.130;5.598;2023-04-07T07:18:17;9.20;99.90
23717;DHT22;22094;52.130;5.598;2023-04-07T07:20:43;9.10;99.90
23717;DHT22;22094;52.130;5.598;2023-04-07T07:23:08;9.10;99.90
23717;DHT22;22094;52.130;5.598;2023-04-07T07:25:34;9.20;99.90
23717;DHT22;22094;52.130;5.598;2023-04-07T07:27:59;9.00;99.90
23717;DHT22;22094;52.130;5.598;2023-04-07T07:30:27;10.20;99.90
23717;DHT22;22094;52.130;5.598;2023-04-07T07:32:54;9.00;99.90
23717;DHT22;22094;52.130;5.598;2023-04-07T07:35:20;9.30;99.90
23717;DHT22;22094;52.130;5.598;2023-04-07T07:37:46;9.10;99.90
23717;DHT22;22094;52.130;5.598;2023-04-07T07:40:11;7.90;99.90
23717;DHT22;22094;52.130;5.598;2023-04-07T07:45:04;9.10;99.90
23717;DHT22;22094;52.130;5.598;2023-04-07T07:47:30;9.20;99.90
23717;DHT22;22094;52.130;5.598;2023-04-07T07:49:56;9.80;99.90
23717;DHT22;22094;52.130;5.598;2023-04-07T07:52:21;9.40;99.90
23717;DHT22;22094;52.130;5.598;2023-04-07T07:54:48;9.40;99.90
23717;DHT22;22094;52.130;5.598;2023-04-07T07:59:40;7.20;99.90
23717;DHT22;22094;52.130;5.598;2023-04-07T08:02:06;11.50;99.90
23717;DHT22;22094;52.130;5.598;2023-04-07T08:04:32;9.80;99.90
23717;DHT22;22094;52.130;5.598;2023-04-07T08:06:57;9.50;99.90
23717;DHT22;22094;52.130;5.598;2023-04-07T08:09:23;9.50;99.90
23717;DHT22;22094;52.130;5.598;2023-04-07T08:11:48;9.70;99.90
23717;DHT22;22094;52.130;5.598;2023-04-07T08:14:15;11.40;99.90
23717;DHT22;22094;52.130;5.598;2023-04-07T08:16:41;9.60;99.90
23717;DHT22;22094;52.130;5.598;2023-04-07T08:19:07;9.60;99.90
23717;DHT22;22094;52.130;5.598;2023-04-07T08:21:33;8.70;99.90
23717;DHT22;22094;52.130;5.598;2023-04-07T08:23:59;9.50;99.90
23717;DHT22;22094;52.130;5.598;2023-04-07T08:26:25;9.20;99.90
23717;DHT22;22094;52.130;5.598;2023-04-07T08:28:51;9.50;99.90
23717;DHT22;22094;52.130;5.598;2023-04-07T08:31:17;11.00;99.90
23717;DHT22;22094;52.130;5.598;2023-04-07T08:33:42;9.20;99.90
23717;DHT22;22094;52.130;5.598;2023-04-07T08:36:08;9.50;99.90
23717;DHT22;22094;52.130;5.598;2023-04-07T08:38:33;9.70;99.90
23717;DHT22;22094;52.130;5.598;2023-04-07T08:41:07;9.80;99.90
23717;DHT22;22094;52.130;5.598;2023-04-07T08:43:35;10.10;99.90
23717;DHT22;22094;52.130;5.598;2023-04-07T08:46:02;9.60;99.90
23717;DHT22;22094;52.130;5.598;2023-04-07T08:48:29;9.60;99.90
23717;DHT22;22094;52.130;5.598;2023-04-07T08:51:03;9.70;99.90
23717;DHT22;22094;52.130;5.598;2023-04-07T08:53:36;7.00;99.90
23717;DHT22;22094;52.130;5.598;2023-04-07T08:56:03;9.80;99.90
23717;DHT22;22094;52.130;5.598;2023-04-07T08:58:30;11.80;99.90
23717;DHT22;22094;52.130;5.598;2023-04-07T09:00:56;9.90;99.90
23717;DHT22;22094;52.130;5.598;2023-04-07T09:03:23;10.20;99.90
23717;DHT22;22094;52.130;5.598;2023-04-07T09:05:50;10.20;99.90
23717;DHT22;22094;52.130;5.598;2023-04-07T09:08:16;11.40;99.90
23717;DHT22;22094;52.130;5.598;2023-04-07T09:10:42;9.20;99.90
23717;DHT22;22094;52.130;5.598;2023-04-07T09:13:07;10.30;99.90
23717;DHT22;22094;52.130;5.598;2023-04-07T09:15:33;10.10;99.90
23717;DHT22;22094;52.130;5.598;2023-04-07T09:20:25;10.00;99.90
23717;DHT22;22094;52.130;5.598;2023-04-07T09:22:51;12.40;99.90
23717;DHT22;22094;52.130;5.598;2023-04-07T09:25:23;10.40;99.90
23717;DHT22;22094;52.130;5.598;2023-04-07T09:28:04;10.10;99.90
23717;DHT22;22094;52.130;5.598;2023-04-07T09:30:31;9.90;99.90
23717;DHT22;22094;52.130;5.598;2023-04-07T09:32:58;8.00;99.90
23717;DHT22;22094;52.130;5.598;2023-04-07T09:35:24;11.60;99.90
23717;DHT22;22094;52.130;5.598;2023-04-07T09:38:03;10.00;99.90
23717;DHT22;22094;52.130;5.598;2023-04-07T09:45:27;10.50;99.90
23717;DHT22;22094;52.130;5.598;2023-04-07T09:47:53;10.00;99.90
23717;DHT22;22094;52.130;5.598;2023-04-07T09:50:38;10.40;99.90
23717;DHT22;22094;52.130;5.598;2023-04-07T09:53:05;10.00;99.90
23717;DHT22;22094;52.130;5.598;2023-04-07T09:55:32;9.80;99.90
23717;DHT22;22094;52.130;5.598;2023-04-07T09:57:59;11.00;99.90
23717;DHT22;22094;52.130;5.598;2023-04-07T10:00:25;9.90;99.90
23717;DHT22;22094;52.130;5.598;2023-04-07T10:02:50;10.00;99.90
23717;DHT22;22094;52.130;5.598;2023-04-07T10:05:17;10.60;99.90
23717;DHT22;22094;52.130;5.598;2023-04-07T10:07:45;10.10;99.90
23717;DHT22;22094;52.130;5.598;2023-04-07T10:12:37;9.90;99.90
23717;DHT22;22094;52.130;5.598;2023-04-07T10:15:03;10.00;99.90
23717;DHT22;22094;52.130;5.598;2023-04-07T10:17:30;10.00;99.90
23717;DHT22;22094;52.130;5.598;2023-04-07T10:19:57;10.30;99.90
23717;DHT22;22094;52.130;5.598;2023-04-07T10:22:25;11.90;99.90
23717;DHT22;22094;52.130;5.598;2023-04-07T10:25:01;10.30;99.90
23717;DHT22;22094;52.130;5.598;2023-04-07T10:27:41;10.10;99.90
23717;DHT22;22094;52.130;5.598;2023-04-07T10:30:23;10.30;99.90
23717;DHT22;22094;52.130;5.598;2023-04-07T10:32:50;10.10;99.90
23717;DHT22;22094;52.130;5.598;2023-04-07T10:35:17;10.00;99.90
23717;DHT22;22094;52.130;5.598;2023-04-07T10:40:35;12.30;99.90
23717;DHT22;22094;52.130;5.598;2023-04-07T10:43:01;12.70;99.90
23717;DHT22;22094;52.130;5.598;2023-04-07T10:48:16;9.90;99.90
23717;DHT22;22094;52.130;5.598;2023-04-07T10:51:28;9.80;99.90
23717;DHT22;22094;52.130;5.598;2023-04-07T10:53:29;10.40;99.90
23717;DHT22;22094;52.130;5.598;2023-04-07T10:55:59;9.90;99.90
23717;DHT22;22094;52.130;5.598;2023-04-07T10:58:29;12.60;99.90
23717;DHT22;22094;52.130;5.598;2023-04-07T11:03:35;11.20;99.90
23717;DHT22;22094;52.130;5.598;2023-04-07T11:06:07;10.10;99.90
23717;DHT22;22094;52.130;5.598;2023-04-07T11:08:37;10.40;99.90
23717;DHT22;22094;52.130;5.598;2023-04-07T11:11:04;10.20;99.90
23717;DHT22;22094;52.130;5.598;2023-04-07T11:16:08;10.40;99.90
23717;DHT22;22094;52.130;5.598;2023-04-07T11:18:35;13.60;99.90
23717;DHT22;22094;52.130;5.598;2023-04-07T11:26:01;10.60;99.90
23717;DHT22;22094;52.130;5.598;2023-04-07T11:28:27;11.00;99.90
23717;DHT22;22094;52.130;5.598;2023-04-07T11:30:56;8.90;99.90
23717;DHT22;22094;52.130;5.598;2023-04-07T11:33:25;10.60;99.90
23717;DHT22;22094;52.130;5.598;2023-04-07T11:35:58;12.00;99.90
23717;DHT22;22094;52.130;5.598;2023-04-07T11:38:27;10.40;99.90
23717;DHT22;22094;52.130;5.598;2023-04-07T11:40:54;9.70;99.90
23717;DHT22;22094;52.130;5.598;2023-04-07T11:43:21;12.60;99.90
23717;DHT22;22094;52.130;5.598;2023-04-07T11:46:10;10.20;99.90
23717;DHT22;22094;52.130;5.598;2023-04-07T11:48:38;10.10;99.90
23717;DHT22;22094;52.130;5.598;2023-04-07T11:51:05;10.10;99.90
23717;DHT22;22094;52.130;5.598;2023-04-07T11:53:33;10.40;99.90
23717;DHT22;22094;52.130;5.598;2023-04-07T11:56:04;10.50;99.90
23717;DHT22;22094;52.130;5.598;2023-04-07T11:58:30;11.30;99.90
23717;DHT22;22094;52.130;5.598;2023-04-07T12:00:58;10.20;99.90
23717;DHT22;22094;52.130;5.598;2023-04-07T12:03:23;10.30;99.90
23717;DHT22;22094;52.130;5.598;2023-04-07T12:05:49;10.30;99.90
23717;DHT22;22094;52.130;5.598;2023-04-07T12:08:15;10.40;99.90
23717;DHT22;22094;52.130;5.598;2023-04-07T12:13:08;10.40;99.90
23717;DHT22;22094;52.130;5.598;2023-04-07T12:15:34;13.00;99.90
23717;DHT22;22094;52.130;5.598;2023-04-07T12:18:01;10.30;99.90
23717;DHT22;22094;52.130;5.598;2023-04-07T12:20:27;10.00;99.90
23717;DHT22;22094;52.130;5.598;2023-04-07T12:22:53;10.20;99.90
23717;DHT22;22094;52.130;5.598;2023-04-07T12:25:19;10.40;99.90
23717;DHT22;22094;52.130;5.598;2023-04-07T12:27:44;10.80;99.90
23717;DHT22;22094;52.130;5.598;2023-04-07T12:30:11;10.60;99.90
23717;DHT22;22094;52.130;5.598;2023-04-07T12:32:37;10.10;99.90
23717;DHT22;22094;52.130;5.598;2023-04-07T12:35:03;9.80;99.90
23717;DHT22;22094;52.130;5.598;2023-04-07T12:37:29;10.70;99.90
23717;DHT22;22094;52.130;5.598;2023-04-07T12:39:56;9.30;99.90
23717;DHT22;22094;52.130;5.598;2023-04-07T12:44:47;12.20;99.90
23717;DHT22;22094;52.130;5.598;2023-04-07T12:47:13;10.90;99.90
23717;DHT22;22094;52.130;5.598;2023-04-07T12:49:39;8.10;99.90
23717;DHT22;22094;52.130;5.598;2023-04-07T12:52:04;11.00;99.90
23717;DHT22;22094;52.130;5.598;2023-04-07T12:56:57;11.10;99.90
23717;DHT22;22094;52.130;5.598;2023-04-07T12:59:22;13.70;99.90
23717;DHT22;22094;52.130;5.598;2023-04-07T13:01:48;10.50;99.90
23717;DHT22;22094;52.130;5.598;2023-04-07T13:04:14;10.60;99.90
23717;DHT22;22094;52.130;5.598;2023-04-07T13:06:40;8.50;99.90
23717;DHT22;22094;52.130;5.598;2023-04-07T13:09:05;11.10;99.90
23717;DHT22;22094;52.130;5.598;2023-04-07T13:11:31;11.00;99.90
23717;DHT22;22094;52.130;5.598;2023-04-07T13:13:56;10.20;99.90
23717;DHT22;22094;52.130;5.598;2023-04-07T13:18:48;10.60;99.90
23717;DHT22;22094;52.130;5.598;2023-04-07T13:21:13;10.60;99.90
23717;DHT22;22094;52.130;5.598;2023-04-07T13:26:05;10.60;99.90
23717;DHT22;22094;52.130;5.598;2023-04-07T13:28:30;12.70;99.90
23717;DHT22;22094;52.130;5.598;2023-04-07T13:30:56;10.50;99.90
23717;DHT22;22094;52.130;5.598;2023-04-07T13:33:21;10.50;99.90
23717;DHT22;22094;52.130;5.598;2023-04-07T13:35:47;10.30;99.90
23717;DHT22;22094;52.130;5.598;2023-04-07T13:38:12;10.70;99.90
23717;DHT22;22094;52.130;5.598;2023-04-07T13:40:38;7.50;99.90
23717;DHT22;22094;52.130;5.598;2023-04-07T13:43:03;10.60;99.90
23717;DHT22;22094;52.130;5.598;2023-04-07T13:45:30;10.50;99.90
23717;DHT22;22094;52.130;5.598;2023-04-07T13:47:55;10.70;99.90
23717;DHT22;22094;52.130;5.598;2023-04-07T13:50:21;10.80;99.90
23717;DHT22;22094;52.130;5.598;2023-04-07T13:52:46;10.60;99.90
23717;DHT22;22094;52.130;5.598;2023-04-07T13:55:12;10.60;99.90
23717;DHT22;22094;52.130;5.598;2023-04-07T13:57:38;10.60;99.90
23717;DHT22;22094;52.130;5.598;2023-04-07T14:00:04;11.20;99.90
23717;DHT22;22094;52.130;5.598;2023-04-07T14:02:31;12.50;99.90
23717;DHT22;22094;52.130;5.598;2023-04-07T14:04:57;11.20;99.90
23717;DHT22;22094;52.130;5.598;2023-04-07T14:07:22;11.30;99.90
23717;DHT22;22094;52.130;5.598;2023-04-07T14:09:48;11.40;99.90
23717;DHT22;22094;52.130;5.598;2023-04-07T14:12:14;9.90;99.90
23717;DHT22;22094;52.130;5.598;2023-04-07T14:14:39;8.30;99.90
23717;DHT22;22094;52.130;5.598;2023-04-07T14:17:05;9.20;99.90
23717;DHT22;22094;52.130;5.598;2023-04-07T14:19:31;10.00;99.90
23717;DHT22;22094;52.130;5.598;2023-04-07T14:21:58;10.80;99.90
23717;DHT22;22094;52.130;5.598;2023-04-07T14:24:23;10.80;99.90
23717;DHT22;22094;52.130;5.598;2023-04-07T14:26:49;10.90;99.90
23717;DHT22;22094;52.130;5.598;2023-04-07T14:29:15;10.60;99.90
23717;DHT22;22094;52.130;5.598;2023-04-07T14:31:41;10.60;99.90
23717;DHT22;22094;52.130;5.598;2023-04-07T14:34:07;9.90;99.90
23717;DHT22;22094;52.130;5.598;2023-04-07T14:36:33;10.40;99.90
23717;DHT22;22094;52.130;5.598;2023-04-07T14:38:59;10.20;99.90
23717;DHT22;22094;52.130;5.598;2023-04-07T14:41:26;10.20;99.90
23717;DHT22;22094;52.130;5.598;2023-04-07T14:43:52;11.60;99.90
23717;DHT22;22094;52.130;5.598;2023-04-07T14:46:21;12.20;99.90
23717;DHT22;22094;52.130;5.598;2023-04-07T14:51:13;12.40;99.90
23717;DHT22;22094;52.130;5.598;2023-04-07T14:53:40;9.90;99.90
23717;DHT22;22094;52.130;5.598;2023-04-07T14:56:06;10.10;99.90
23717;DHT22;22094;52.130;5.598;2023-04-07T14:58:32;9.90;99.90
23717;DHT22;22094;52.130;5.598;2023-04-07T15:00:57;10.00;99.90
23717;DHT22;22094;52.130;5.598;2023-04-07T15:03:23;12.30;99.90
23717;DHT22;22094;52.130;5.598;2023-04-07T15:05:49;9.90;99.90
23717;DHT22;22094;52.130;5.598;2023-04-07T15:08:14;10.00;99.90
23717;DHT22;22094;52.130;5.598;2023-04-07T15:10:40;12.10;99.90
23717;DHT22;22094;52.130;5.598;2023-04-07T15:15:32;10.10;99.90
23717;DHT22;22094;52.130;5.598;2023-04-07T15:20:23;12.60;99.90
23717;DHT22;22094;52.130;5.598;2023-04-07T15:22:49;10.30;99.90
23717;DHT22;22094;52.130;5.598;2023-04-07T15:25:14;10.30;99.90
23717;DHT22;22094;52.130;5.598;2023-04-07T15:27:40;12.00;99.90
23717;DHT22;22094;52.130;5.598;2023-04-07T15:30:06;10.50;99.90
23717;DHT22;22094;52.130;5.598;2023-04-07T15:32:32;11.70;99.90
23717;DHT22;22094;52.130;5.598;2023-04-07T15:34:58;10.30;99.90
23717;DHT22;22094;52.130;5.598;2023-04-07T15:37:24;10.20;99.90
23717;DHT22;22094;52.130;5.598;2023-04-07T15:39:49;10.30;99.90
23717;DHT22;22094;52.130;5.598;2023-04-07T15:42:15;10.60;99.90
23717;DHT22;22094;52.130;5.598;2023-04-07T15:44:41;10.30;99.90
23717;DHT22;22094;52.130;5.598;2023-04-07T15:47:06;10.30;99.90
23717;DHT22;22094;52.130;5.598;2023-04-07T15:49:32;10.20;99.90
23717;DHT22;22094;52.130;5.598;2023-04-07T15:51:58;10.40;99.90
23717;DHT22;22094;52.130;5.598;2023-04-07T15:54:25;10.40;99.90
23717;DHT22;22094;52.130;5.598;2023-04-07T15:56:51;10.10;99.90
23717;DHT22;22094;52.130;5.598;2023-04-07T15:59:17;10.20;99.90
23717;DHT22;22094;52.130;5.598;2023-04-07T16:01:43;9.60;99.90
23717;DHT22;22094;52.130;5.598;2023-04-07T16:04:09;11.20;99.90
23717;DHT22;22094;52.130;5.598;2023-04-07T16:06:34;10.10;99.90
23717;DHT22;22094;52.130;5.598;2023-04-07T16:09:00;10.70;99.90
23717;DHT22;22094;52.130;5.598;2023-04-07T16:11:25;9.80;99.90
23717;DHT22;22094;52.130;5.598;2023-04-07T16:13:51;10.00;99.90
23717;DHT22;22094;52.130;5.598;2023-04-07T16:16:16;10.00;99.90
23717;DHT22;22094;52.130;5.598;2023-04-07T16:18:43;9.80;99.90
23717;DHT22;22094;52.130;5.598;2023-04-07T16:23:35;11.20;99.90
23717;DHT22;22094;52.130;5.598;2023-04-07T16:26:01;9.80;99.90
23717;DHT22;22094;52.130;5.598;2023-04-07T16:28:29;10.10;99.90
23717;DHT22;22094;52.130;5.598;2023-04-07T16:30:54;9.70;99.90
23717;DHT22;22094;52.130;5.598;2023-04-07T16:33:20;9.30;99.90
23717;DHT22;22094;52.130;5.598;2023-04-07T16:35:45;9.60;99.90
23717;DHT22;22094;52.130;5.598;2023-04-07T16:38:11;9.70;99.90